createdAt,value
2022-11-29T00:02:44.694Z,96.63
2022-11-29T00:07:46.940Z,96.74
2022-11-29T00:12:49.486Z,97.13
2022-11-29T00:17:53.035Z,97.21
2022-11-29T00:22:55.236Z,97.55
2022-11-29T00:27:57.168Z,97.67
2022-11-29T00:33:00.723Z,97.73
2022-11-29T00:38:02.817Z,97.77
2022-11-29T00:43:04.938Z,97.76
2022-11-29T00:48:08.256Z,97.57
2022-11-29T00:53:10.379Z,97.34
2022-11-29T00:58:12.404Z,97.38
2022-11-29T01:03:16.420Z,97.38
2022-11-29T01:08:18.556Z,97.37
2022-11-29T01:13:20.626Z,97.78
2022-11-29T01:18:24.278Z,97.54
2022-11-29T01:23:26.843Z,97.82
2022-11-29T01:28:29.775Z,97.85
2022-11-29T01:33:33.444Z,97.62
2022-11-29T01:38:36.470Z,97.25
2022-11-29T01:43:55.324Z,97.35
2022-11-29T01:49:03.838Z,97.65
2022-11-29T01:54:06.624Z,97.29
2022-11-29T01:59:12.973Z,97.22
2022-11-29T02:04:18.644Z,96.98
2022-11-29T02:09:22.994Z,97.10
2022-11-29T02:14:40.401Z,96.99
2022-11-29T02:20:08.853Z,96.93
2022-11-29T02:25:31.245Z,97.01
2022-11-29T02:30:53.965Z,97.21
2022-11-29T02:36:24.324Z,97.10
2022-11-29T02:41:44.699Z,97.38
2022-11-29T02:46:57.041Z,97.94
2022-11-29T02:52:02.606Z,98.24
2022-11-29T02:57:16.204Z,98.75
2022-11-29T03:02:24.933Z,98.81
2022-11-29T03:07:39.333Z,98.98
2022-11-29T03:12:46.635Z,99.51
2022-11-29T03:18:04.152Z,99.76
2022-11-29T03:23:22.198Z,99.53
2022-11-29T03:28:31.334Z,99.35
2022-11-29T03:33:45.570Z,99.48
2022-11-29T03:38:53.110Z,99.74
2022-11-29T03:44:00.300Z,99.52
2022-11-29T03:49:06.720Z,99.58
2022-11-29T03:54:15.348Z,98.90
2022-11-29T03:59:30.182Z,98.91
2022-11-29T04:05:05.056Z,98.91
2022-11-29T04:10:20.804Z,98.89
2022-11-29T04:15:57.443Z,99.04
2022-11-29T04:21:30.576Z,99.05
2022-11-29T04:26:57.936Z,98.89
2022-11-29T04:32:47.536Z,98.72
2022-11-29T04:38:16.662Z,98.15
2022-11-29T04:43:49.934Z,98.87
2022-11-29T04:49:06.441Z,99.09
2022-11-29T04:54:20.906Z,99.06
2022-11-29T04:59:30.844Z,99.01
2022-11-29T05:04:41.052Z,99.14
2022-11-29T05:09:58.838Z,98.89
2022-11-29T05:15:49.382Z,99.53
2022-11-29T05:20:58.067Z,99.29
2022-11-29T05:26:05.522Z,99.95
2022-11-29T05:31:25.189Z,100.00
2022-11-29T05:36:40.038Z,100.00
2022-11-29T05:42:05.194Z,100.00
2022-11-29T05:47:09.800Z,100.00
2022-11-29T05:52:36.512Z,100.00
2022-11-29T05:57:46.665Z,100.00
2022-11-29T06:02:58.613Z,100.00
2022-11-29T06:08:07.125Z,100.00
2022-11-29T06:13:20.838Z,100.00
2022-11-29T06:18:38.095Z,100.00
2022-11-29T06:23:55.750Z,100.00
2022-11-29T06:29:17.921Z,100.00
2022-11-29T06:34:31.043Z,100.00
2022-11-29T06:39:33.529Z,100.00
2022-11-29T06:44:36.208Z,100.00
2022-11-29T06:49:47.217Z,100.00
2022-11-29T06:55:03.091Z,100.00
2022-11-29T07:00:12.752Z,100.00
2022-11-29T07:05:23.788Z,100.00
2022-11-29T07:10:27.644Z,100.00
2022-11-29T07:15:30.172Z,100.00
2022-11-29T07:20:41.450Z,100.00
2022-11-29T07:25:53.090Z,100.00
2022-11-29T07:31:05.382Z,100.00
2022-11-29T07:36:14.823Z,100.00
2022-11-29T07:41:23.287Z,100.00
2022-11-29T07:46:25.579Z,100.00
2022-11-29T07:51:28.831Z,100.00
2022-11-29T07:56:30.854Z,100.00
2022-11-29T08:01:33.044Z,100.00
2022-11-29T08:06:36.480Z,100.00
2022-11-29T08:11:39.631Z,99.67
2022-11-29T08:16:41.740Z,99.28
2022-11-29T08:21:45.511Z,99.31
2022-11-29T08:26:47.664Z,98.59
2022-11-29T08:31:51.184Z,98.18
2022-11-29T08:36:56.291Z,99.21
2022-11-29T08:41:58.417Z,97.38
2022-11-29T08:47:00.753Z,98.01
2022-11-29T08:52:04.149Z,97.86
2022-11-29T08:57:38.147Z,97.62
2022-11-29T09:02:27.995Z,97.73
2022-11-29T09:07:31.659Z,97.40
2022-11-29T09:12:34.917Z,97.33
2022-11-29T09:17:37.263Z,97.22
2022-11-29T09:22:40.286Z,96.91
2022-11-29T09:27:45.140Z,96.90
2022-11-29T09:32:47.297Z,97.49
2022-11-29T09:37:51.034Z,96.98
2022-11-29T09:43:00.319Z,96.30
2022-11-29T09:48:37.267Z,94.79
2022-11-29T09:53:53.596Z,94.36
2022-11-29T09:58:59.542Z,94.38
2022-11-29T10:04:04.876Z,94.63
2022-11-29T10:09:17.238Z,94.47
2022-11-29T10:14:22.626Z,94.09
2022-11-29T10:19:30.944Z,94.31
2022-11-29T10:24:34.948Z,93.67
2022-11-29T10:29:37.072Z,94.10
2022-11-29T10:34:40.191Z,93.73
2022-11-29T10:39:47.253Z,92.66
2022-11-29T10:44:49.032Z,92.83
2022-11-29T10:49:51.440Z,92.92
2022-11-29T10:54:58.952Z,93.34
2022-11-29T11:00:05.066Z,93.71
2022-11-29T11:05:14.590Z,92.50
2022-11-29T11:10:27.667Z,93.48
2022-11-29T11:15:31.352Z,93.41
2022-11-29T11:20:35.875Z,93.45
2022-11-29T11:25:40.811Z,93.33
2022-11-29T11:30:51.346Z,93.07
2022-11-29T11:36:09.444Z,93.34
2022-11-29T11:41:23.903Z,93.33
2022-11-29T11:46:47.306Z,93.75
2022-11-29T11:51:50.456Z,93.23
2022-11-29T11:56:53.796Z,92.19
2022-11-29T12:01:55.951Z,92.72
2022-11-29T12:07:00.667Z,92.19
2022-11-29T12:12:15.228Z,92.26
2022-11-29T12:17:26.627Z,92.69
2022-11-29T12:22:35.780Z,93.10
2022-11-29T12:27:39.391Z,92.53
2022-11-29T12:33:03.734Z,91.95
2022-11-29T12:38:18.674Z,91.75
2022-11-29T12:43:32.114Z,91.36
2022-11-29T12:48:43.361Z,92.17
2022-11-29T12:53:59.422Z,91.95
2022-11-29T12:59:15.412Z,92.06
2022-11-29T13:04:25.424Z,91.99
2022-11-29T13:09:46.654Z,92.67
2022-11-29T13:14:57.572Z,92.63
2022-11-29T13:20:04.148Z,92.55
2022-11-29T13:25:15.346Z,92.94
2022-11-29T13:30:19.277Z,94.23
2022-11-29T13:35:25.229Z,95.56
2022-11-29T13:40:36.298Z,95.86
2022-11-29T13:45:46.904Z,96.37
2022-11-29T13:50:49.512Z,96.97
2022-11-29T13:55:55.822Z,98.00
2022-11-29T14:01:02.309Z,98.68
2022-11-29T14:06:31.639Z,99.12
2022-11-29T14:11:44.447Z,100.00
2022-11-29T14:16:50.337Z,99.69
2022-11-29T14:22:27.245Z,100.00
2022-11-29T14:27:55.933Z,100.00
2022-11-29T14:33:04.913Z,100.00
2022-11-29T14:38:14.334Z,100.00
2022-11-29T14:43:21.757Z,100.00
2022-11-29T14:48:27.034Z,100.00
2022-11-29T14:53:33.973Z,100.00
2022-11-29T14:58:35.897Z,100.00
2022-11-29T15:03:46.126Z,100.00
2022-11-29T15:08:54.377Z,100.00
2022-11-29T15:14:04.222Z,100.00
2022-11-29T15:19:33.778Z,100.00
2022-11-29T15:24:50.596Z,100.00
2022-11-29T15:29:52.692Z,100.00
2022-11-29T15:34:56.747Z,100.00
2022-11-29T15:40:03.831Z,100.00
2022-11-29T15:45:28.380Z,100.00
2022-11-29T15:50:33.665Z,100.00
2022-11-29T15:55:35.756Z,100.00
2022-11-29T16:00:38.287Z,100.00
2022-11-29T16:05:42.207Z,100.00
2022-11-29T16:10:46.973Z,100.00
2022-11-29T16:15:48.755Z,100.00
2022-11-29T16:21:00.127Z,100.00
2022-11-29T16:26:11.621Z,100.00
2022-11-29T16:31:18.091Z,100.00
2022-11-29T16:36:25.393Z,100.00
2022-11-29T16:41:32.270Z,100.00
2022-11-29T16:46:36.571Z,100.00
2022-11-29T16:51:46.180Z,100.00
2022-11-29T16:56:48.444Z,100.00
2022-11-29T17:01:51.224Z,100.00
2022-11-29T17:06:55.720Z,100.00
2022-11-29T17:11:58.500Z,100.00
2022-11-29T17:17:03.122Z,100.00
2022-11-29T17:22:06.848Z,100.00
2022-11-29T17:27:08.929Z,100.00
2022-11-29T17:32:10.982Z,100.00
2022-11-29T17:37:14.276Z,100.00
2022-11-29T17:42:16.025Z,100.00
2022-11-29T17:47:17.744Z,100.00
2022-11-29T17:52:20.900Z,100.00
2022-11-29T17:57:22.900Z,100.00
2022-11-29T18:02:25.032Z,100.00
2022-11-29T18:07:28.436Z,100.00
2022-11-29T18:12:30.737Z,100.00
2022-11-29T18:17:32.760Z,100.00
2022-11-29T18:22:36.133Z,100.00
2022-11-29T18:27:38.025Z,100.00
2022-11-29T18:32:40.002Z,100.00
2022-11-29T18:38:13.618Z,100.00
2022-11-29T18:43:05.633Z,100.00
2022-11-29T18:48:07.702Z,100.00
2022-11-29T18:53:11.323Z,100.00
2022-11-29T18:58:13.766Z,100.00
2022-11-29T19:03:16.053Z,100.00
2022-11-29T19:08:19.547Z,100.00
2022-11-29T19:13:21.951Z,100.00
2022-11-29T19:18:23.917Z,100.00
2022-11-29T19:23:27.276Z,100.00
2022-11-29T19:28:29.257Z,100.00
2022-11-29T19:33:31.297Z,100.00
2022-11-29T19:38:35.948Z,100.00
2022-11-29T19:43:38.259Z,100.00
2022-11-29T19:48:40.760Z,100.00
2022-11-29T19:53:45.250Z,100.00
2022-11-29T19:58:47.534Z,100.00
2022-11-29T20:03:50.421Z,100.00
2022-11-29T20:08:54.409Z,100.00
2022-11-29T20:13:58.452Z,100.00
2022-11-29T20:19:01.356Z,100.00
2022-11-29T20:24:07.379Z,100.00
2022-11-29T20:29:10.541Z,100.00
2022-11-29T20:34:14.728Z,100.00
2022-11-29T20:39:31.007Z,100.00
2022-11-29T20:44:37.560Z,100.00
2022-11-29T20:49:40.471Z,100.00
2022-11-29T20:54:43.834Z,100.00
2022-11-29T20:59:46.275Z,100.00
2022-11-29T21:04:54.219Z,100.00
2022-11-29T21:10:01.642Z,100.00
2022-11-29T21:15:05.320Z,100.00
2022-11-29T21:20:09.080Z,100.00
2022-11-29T21:25:20.545Z,100.00
2022-11-29T21:30:24.678Z,100.00
2022-11-29T21:35:26.497Z,100.00
2022-11-29T21:40:31.271Z,100.00
2022-11-29T21:45:32.910Z,100.00
2022-11-29T21:50:34.626Z,100.00
2022-11-29T21:55:38.083Z,100.00
2022-11-29T22:00:39.771Z,100.00
2022-11-29T22:05:42.076Z,100.00
2022-11-29T22:10:45.548Z,100.00
2022-11-29T22:15:47.795Z,100.00
2022-11-29T22:20:49.740Z,100.00
2022-11-29T22:25:52.746Z,100.00
2022-11-29T22:31:02.150Z,100.00
2022-11-29T22:36:05.818Z,100.00
2022-11-29T22:41:10.911Z,100.00
2022-11-29T22:46:16.141Z,100.00
2022-11-29T22:51:20.028Z,100.00
2022-11-29T22:56:24.250Z,100.00
2022-11-29T23:01:27.910Z,100.00
2022-11-29T23:06:32.386Z,100.00
2022-11-29T23:11:35.838Z,100.00
2022-11-29T23:16:38.227Z,100.00
2022-11-29T23:21:41.218Z,100.00
2022-11-29T23:26:46.519Z,100.00
2022-11-29T23:31:49.040Z,100.00
2022-11-29T23:36:53.173Z,100.00
2022-11-29T23:41:56.814Z,100.00
2022-11-29T23:46:58.813Z,100.00
2022-11-29T23:52:00.436Z,100.00
2022-11-29T23:57:05.356Z,100.00
